sensor_id;sensor_type;location;lat;lon;timestamp;pressure;altitude;pressure_sealevel;temperature;humidity
6853;BME280;3465;42.144;24.722;2023-03-23T00:01:15;145513.75;;;10.39;100.00
6853;BME280;3465;42.144;24.722;2023-03-23T00:03:45;145527.50;;;10.44;100.00
6853;BME280;3465;42.144;24.722;2023-03-23T00:06:11;145532.50;;;10.46;100.00
6853;BME280;3465;42.144;24.722;2023-03-23T00:08:42;145540.03;;;10.49;100.00
6853;BME280;3465;42.144;24.722;2023-03-23T00:11:19;145541.28;;;10.50;100.00
6853;BME280;3465;42.144;24.722;2023-03-23T00:13:46;145546.31;;;10.52;100.00
6853;BME280;3465;42.144;24.722;2023-03-23T00:16:13;145527.50;;;10.44;100.00
6853;BME280;3465;42.144;24.722;2023-03-23T00:18:49;145523.75;;;10.43;100.00
6853;BME280;3465;42.144;24.722;2023-03-23T00:21:19;145504.97;;;10.35;100.00
6853;BME280;3465;42.144;24.722;2023-03-23T00:23:45;145483.66;;;10.27;100.00
6853;BME280;3465;42.144;24.722;2023-03-23T00:26:11;145522.47;;;10.42;100.00
6853;BME280;3465;42.144;24.722;2023-03-23T00:28:37;145484.94;;;10.27;100.00
6853;BME280;3465;42.144;24.722;2023-03-23T00:31:07;145496.19;;;10.32;100.00
6853;BME280;3465;42.144;24.722;2023-03-23T00:33:34;145518.72;;;10.41;100.00
6853;BME280;3465;42.144;24.722;2023-03-23T00:36:09;145503.69;;;10.35;100.00
6853;BME280;3465;42.144;24.722;2023-03-23T00:38:36;145502.44;;;10.34;100.00
6853;BME280;3465;42.144;24.722;2023-03-23T00:41:02;145496.19;;;10.32;100.00
6853;BME280;3465;42.144;24.722;2023-03-23T00:43:28;145492.44;;;10.30;100.00
6853;BME280;3465;42.144;24.722;2023-03-23T00:45:55;145481.19;;;10.26;100.00
6853;BME280;3465;42.144;24.722;2023-03-23T00:48:23;145481.19;;;10.26;100.00
6853;BME280;3465;42.144;24.722;2023-03-23T00:50:49;145444.88;;;10.11;100.00
6853;BME280;3465;42.144;24.722;2023-03-23T00:53:16;145468.66;;;10.21;100.00
6853;BME280;3465;42.144;24.722;2023-03-23T00:55:43;145414.75;;;9.99;100.00
6853;BME280;3465;42.144;24.722;2023-03-23T00:58:09;145461.16;;;10.18;100.00
6853;BME280;3465;42.144;24.722;2023-03-23T01:00:35;145454.88;;;10.15;100.00
6853;BME280;3465;42.144;24.722;2023-03-23T01:03:01;145438.59;;;10.08;100.00
6853;BME280;3465;42.144;24.722;2023-03-23T01:05:26;145418.53;;;10.00;100.00
6853;BME280;3465;42.144;24.722;2023-03-23T01:08:00;145423.53;;;10.02;100.00
6853;BME280;3465;42.144;24.722;2023-03-23T01:10:27;145408.53;;;9.96;100.00
6853;BME280;3465;42.144;24.722;2023-03-23T01:12:53;145391.00;;;9.89;100.00
6853;BME280;3465;42.144;24.722;2023-03-23T01:15:19;145382.22;;;9.86;100.00
6853;BME280;3465;42.144;24.722;2023-03-23T01:17:45;145332.19;;;9.66;100.00
6853;BME280;3465;42.144;24.722;2023-03-23T01:20:13;145374.72;;;9.83;100.00
6853;BME280;3465;42.144;24.722;2023-03-23T01:22:39;145334.66;;;9.67;100.00
6853;BME280;3465;42.144;24.722;2023-03-23T01:25:06;145350.94;;;9.73;100.00
6853;BME280;3465;42.144;24.722;2023-03-23T01:27:31;145339.69;;;9.69;100.00
6853;BME280;3465;42.144;24.722;2023-03-23T01:29:57;145318.41;;;9.60;100.00
6853;BME280;3465;42.144;24.722;2023-03-23T01:32:22;145324.69;;;9.63;100.00
6853;BME280;3465;42.144;24.722;2023-03-23T01:34:48;145332.19;;;9.66;100.00
6853;BME280;3465;42.144;24.722;2023-03-23T01:37:13;145342.16;;;9.70;100.00
6853;BME280;3465;42.144;24.722;2023-03-23T01:39:41;145327.16;;;9.64;100.00
6853;BME280;3465;42.144;24.722;2023-03-23T01:42:08;145338.41;;;9.68;100.00
6853;BME280;3465;42.144;24.722;2023-03-23T01:46:59;145320.94;;;9.61;100.00
6853;BME280;3465;42.144;24.722;2023-03-23T01:49:28;145310.91;;;9.57;100.00
6853;BME280;3465;42.144;24.722;2023-03-23T01:52:02;145318.41;;;9.60;100.00
6853;BME280;3465;42.144;24.722;2023-03-23T01:54:29;145318.41;;;9.60;100.00
6853;BME280;3465;42.144;24.722;2023-03-23T01:57:04;145322.16;;;9.62;100.00
6853;BME280;3465;42.144;24.722;2023-03-23T01:59:33;145324.69;;;9.63;100.00
6853;BME280;3465;42.144;24.722;2023-03-23T02:01:59;145344.72;;;9.71;100.00
6853;BME280;3465;42.144;24.722;2023-03-23T02:04:26;145319.66;;;9.61;100.00
6853;BME280;3465;42.144;24.722;2023-03-23T02:06:53;145313.44;;;9.58;100.00
6853;BME280;3465;42.144;24.722;2023-03-23T02:09:21;145290.88;;;9.49;100.00
6853;BME280;3465;42.144;24.722;2023-03-23T02:11:48;145284.66;;;9.47;100.00
6853;BME280;3465;42.144;24.722;2023-03-23T02:14:15;145275.88;;;9.43;100.00
6853;BME280;3465;42.144;24.722;2023-03-23T02:16:45;145247.09;;;9.32;100.00
6853;BME280;3465;42.144;24.722;2023-03-23T02:32:12;145169.59;;;9.01;100.00
6853;BME280;3465;42.144;24.722;2023-03-23T02:34:50;145160.81;;;8.97;100.00
6853;BME280;3465;42.144;24.722;2023-03-23T02:37:34;145159.56;;;8.97;100.00
6853;BME280;3465;42.144;24.722;2023-03-23T02:40:08;145147.06;;;8.92;100.00
6853;BME280;3465;42.144;24.722;2023-03-23T02:42:39;145155.81;;;8.95;100.00
6853;BME280;3465;42.144;24.722;2023-03-23T02:45:08;145158.28;;;8.96;100.00
6853;BME280;3465;42.144;24.722;2023-03-23T02:47:35;145142.03;;;8.90;100.00
6853;BME280;3465;42.144;24.722;2023-03-23T02:50:05;145150.78;;;8.93;100.00
6853;BME280;3465;42.144;24.722;2023-03-23T02:52:34;145160.81;;;8.97;100.00
6853;BME280;3465;42.144;24.722;2023-03-23T02:55:02;145153.31;;;8.94;100.00
6853;BME280;3465;42.144;24.722;2023-03-23T02:57:28;145168.31;;;9.00;100.00
6853;BME280;3465;42.144;24.722;2023-03-23T02:59:54;145152.06;;;8.94;100.00
6853;BME280;3465;42.144;24.722;2023-03-23T03:02:35;145137.06;;;8.88;100.00
6853;BME280;3465;42.144;24.722;2023-03-23T03:15:58;145128.31;;;8.84;100.00
6853;BME280;3465;42.144;24.722;2023-03-23T03:18:42;145099.53;;;8.73;100.00
6853;BME280;3465;42.144;24.722;2023-03-23T03:21:12;145130.78;;;8.85;100.00
6853;BME280;3465;42.144;24.722;2023-03-23T03:23:40;145093.31;;;8.70;100.00
6853;BME280;3465;42.144;24.722;2023-03-23T03:26:10;145075.78;;;8.63;100.00
6853;BME280;3465;42.144;24.722;2023-03-23T03:28:37;145112.06;;;8.78;100.00
6853;BME280;3465;42.144;24.722;2023-03-23T03:31:04;145094.53;;;8.70;100.00
6853;BME280;3465;42.144;24.722;2023-03-23T03:33:31;145077.06;;;8.63;100.00
6853;BME280;3465;42.144;24.722;2023-03-23T03:36:01;145078.28;;;8.64;100.00
6853;BME280;3465;42.144;24.722;2023-03-23T03:38:28;145068.28;;;8.60;100.00
6853;BME280;3465;42.144;24.722;2023-03-23T03:40:54;145080.81;;;8.65;100.00
6853;BME280;3465;42.144;24.722;2023-03-23T03:43:20;145065.81;;;8.59;100.00
6853;BME280;3465;42.144;24.722;2023-03-23T03:45:45;145078.28;;;8.64;100.00
6853;BME280;3465;42.144;24.722;2023-03-23T03:48:11;145047.03;;;8.51;100.00
6853;BME280;3465;42.144;24.722;2023-03-23T03:50:38;145023.28;;;8.42;100.00
6853;BME280;3465;42.144;24.722;2023-03-23T03:53:04;145053.31;;;8.54;100.00
6853;BME280;3465;42.144;24.722;2023-03-23T03:55:31;145025.81;;;8.43;100.00
6853;BME280;3465;42.144;24.722;2023-03-23T03:58:01;145020.81;;;8.41;100.00
6853;BME280;3465;42.144;24.722;2023-03-23T04:00:28;144989.56;;;8.28;100.00
6853;BME280;3465;42.144;24.722;2023-03-23T04:02:53;145030.78;;;8.45;100.00
6853;BME280;3465;42.144;24.722;2023-03-23T04:05:21;145005.81;;;8.35;100.00
6853;BME280;3465;42.144;24.722;2023-03-23T04:07:47;145007.03;;;8.35;100.00
6853;BME280;3465;42.144;24.722;2023-03-23T04:10:17;145023.28;;;8.42;100.00
6853;BME280;3465;42.144;24.722;2023-03-23T04:12:45;145018.28;;;8.40;100.00
6853;BME280;3465;42.144;24.722;2023-03-23T04:15:10;145017.06;;;8.39;100.00
6853;BME280;3465;42.144;24.722;2023-03-23T04:17:35;144995.78;;;8.31;100.00
6853;BME280;3465;42.144;24.722;2023-03-23T04:20:01;144978.28;;;8.24;100.00
6853;BME280;3465;42.144;24.722;2023-03-23T04:22:32;144990.78;;;8.29;100.00
6853;BME280;3465;42.144;24.722;2023-03-23T04:24:59;144989.56;;;8.28;100.00
6853;BME280;3465;42.144;24.722;2023-03-23T04:27:27;144948.25;;;8.12;100.00
6853;BME280;3465;42.144;24.722;2023-03-23T04:29:55;144994.53;;;8.30;100.00
6853;BME280;3465;42.144;24.722;2023-03-23T04:32:21;145005.81;;;8.35;100.00
6853;BME280;3465;42.144;24.722;2023-03-23T04:34:47;145002.03;;;8.33;100.00
6853;BME280;3465;42.144;24.722;2023-03-23T04:37:13;144984.56;;;8.26;100.00
6853;BME280;3465;42.144;24.722;2023-03-23T04:39:39;144975.81;;;8.23;100.00
6853;BME280;3465;42.144;24.722;2023-03-23T04:42:05;144964.50;;;8.18;100.00
6853;BME280;3465;42.144;24.722;2023-03-23T04:44:31;144950.75;;;8.13;100.00
6853;BME280;3465;42.144;24.722;2023-03-23T04:47:00;144958.25;;;8.16;100.00
6853;BME280;3465;42.144;24.722;2023-03-23T04:49:26;144949.53;;;8.12;100.00
6853;BME280;3465;42.144;24.722;2023-03-23T04:51:52;144943.25;;;8.10;100.00
6853;BME280;3465;42.144;24.722;2023-03-23T04:54:17;144908.28;;;7.96;100.00
6853;BME280;3465;42.144;24.722;2023-03-23T04:56:43;144945.78;;;8.11;100.00
6853;BME280;3465;42.144;24.722;2023-03-23T04:59:08;144954.50;;;8.14;100.00
6853;BME280;3465;42.144;24.722;2023-03-23T05:01:33;144970.75;;;8.21;100.00
6853;BME280;3465;42.144;24.722;2023-03-23T05:04:02;145055.78;;;8.55;100.00
6853;BME280;3465;42.144;24.722;2023-03-23T05:06:28;145148.31;;;8.92;100.00
6853;BME280;3465;42.144;24.722;2023-03-23T05:08:53;145198.31;;;9.12;100.00
6853;BME280;3465;42.144;24.722;2023-03-23T05:11:19;145148.31;;;8.92;100.00
6853;BME280;3465;42.144;24.722;2023-03-23T05:13:44;145312.16;;;9.58;100.00
6853;BME280;3465;42.144;24.722;2023-03-23T05:16:10;145433.56;;;10.06;100.00
6853;BME280;3465;42.144;24.722;2023-03-23T05:18:35;145543.78;;;10.51;100.00
6853;BME280;3465;42.144;24.722;2023-03-23T05:21:02;145600.13;;;10.73;100.00
6853;BME280;3465;42.144;24.722;2023-03-23T05:23:28;145623.94;;;10.83;100.00
6853;BME280;3465;42.144;24.722;2023-03-23T05:25:57;145601.41;;;10.74;100.00
6853;BME280;3465;42.144;24.722;2023-03-23T05:28:26;145521.25;;;10.42;100.00
6853;BME280;3465;42.144;24.722;2023-03-23T05:30:52;145510.00;;;10.37;100.00
6853;BME280;3465;42.144;24.722;2023-03-23T05:33:19;145487.44;;;10.28;100.00
6853;BME280;3465;42.144;24.722;2023-03-23T05:35:45;145451.13;;;10.13;100.00
6853;BME280;3465;42.144;24.722;2023-03-23T05:38:13;145396.00;;;9.91;100.00
6853;BME280;3465;42.144;24.722;2023-03-23T05:40:40;145347.19;;;9.72;100.00
6853;BME280;3465;42.144;24.722;2023-03-23T05:43:07;145310.91;;;9.57;100.00
6853;BME280;3465;42.144;24.722;2023-03-23T05:45:32;145303.41;;;9.54;100.00
6853;BME280;3465;42.144;24.722;2023-03-23T05:47:59;145230.84;;;9.25;100.00
6853;BME280;3465;42.144;24.722;2023-03-23T05:50:25;145233.38;;;9.26;100.00
6853;BME280;3465;42.144;24.722;2023-03-23T05:52:51;145235.84;;;9.27;100.00
6853;BME280;3465;42.144;24.722;2023-03-23T05:55:17;145218.31;;;9.20;100.00
6853;BME280;3465;42.144;24.722;2023-03-23T05:57:43;145232.09;;;9.26;100.00
6853;BME280;3465;42.144;24.722;2023-03-23T06:00:09;145257.13;;;9.36;100.00
6853;BME280;3465;42.144;24.722;2023-03-23T06:02:39;145255.88;;;9.35;100.00
6853;BME280;3465;42.144;24.722;2023-03-23T06:05:09;145329.69;;;9.65;100.00
6853;BME280;3465;42.144;24.722;2023-03-23T06:07:35;145309.69;;;9.57;100.00
6853;BME280;3465;42.144;24.722;2023-03-23T06:10:01;145335.94;;;9.67;100.00
6853;BME280;3465;42.144;24.722;2023-03-23T06:12:27;145314.66;;;9.59;100.00
6853;BME280;3465;42.144;24.722;2023-03-23T06:14:52;145317.19;;;9.60;100.00
6853;BME280;3465;42.144;24.722;2023-03-23T06:17:18;145327.16;;;9.64;100.00
6853;BME280;3465;42.144;24.722;2023-03-23T06:19:44;145339.69;;;9.69;100.00
6853;BME280;3465;42.144;24.722;2023-03-23T06:22:15;145338.41;;;9.68;100.00
6853;BME280;3465;42.144;24.722;2023-03-23T06:24:40;145340.97;;;9.69;100.00
6853;BME280;3465;42.144;24.722;2023-03-23T06:27:06;145330.91;;;9.65;100.00
6853;BME280;3465;42.144;24.722;2023-03-23T06:29:34;145342.16;;;9.70;100.00
6853;BME280;3465;42.144;24.722;2023-03-23T06:32:01;145349.72;;;9.73;100.00
6853;BME280;3465;42.144;24.722;2023-03-23T06:34:31;145353.47;;;9.74;100.00
6853;BME280;3465;42.144;24.722;2023-03-23T06:36:58;145364.72;;;9.79;100.00
6853;BME280;3465;42.144;24.722;2023-03-23T06:39:23;145362.19;;;9.78;100.00
6853;BME280;3465;42.144;24.722;2023-03-23T06:41:49;145407.25;;;9.96;100.00
6853;BME280;3465;42.144;24.722;2023-03-23T06:44:14;145404.78;;;9.95;100.00
6853;BME280;3465;42.144;24.722;2023-03-23T06:46:41;145428.56;;;10.04;100.00
6853;BME280;3465;42.144;24.722;2023-03-23T06:49:08;145406.03;;;9.95;100.00
6853;BME280;3465;42.144;24.722;2023-03-23T06:51:34;145443.59;;;10.10;100.00
6853;BME280;3465;42.144;24.722;2023-03-23T06:54:00;145486.22;;;10.28;100.00
6853;BME280;3465;42.144;24.722;2023-03-23T06:56:25;145508.72;;;10.37;100.00
6853;BME280;3465;42.144;24.722;2023-03-23T06:58:51;145613.94;;;10.79;100.00
6853;BME280;3465;42.144;24.722;2023-03-23T07:01:16;145764.25;;;11.39;100.00
6853;BME280;3465;42.144;24.722;2023-03-23T07:03:42;145951.09;;;12.14;100.00
6853;BME280;3465;42.144;24.722;2023-03-23T07:06:09;146151.81;;;12.94;100.00
6853;BME280;3465;42.144;24.722;2023-03-23T07:08:35;146266.06;;;13.40;100.00
6853;BME280;3465;42.144;24.722;2023-03-23T07:11:01;146439.34;;;14.09;100.00
6853;BME280;3465;42.144;24.722;2023-03-23T07:13:27;146536.16;;;14.48;100.00
6853;BME280;3465;42.144;24.722;2023-03-23T07:15:52;146665.59;;;14.99;100.00
6853;BME280;3465;42.144;24.722;2023-03-23T07:18:18;146986.34;;;16.27;100.00
6853;BME280;3465;42.144;24.722;2023-03-23T07:20:48;147456.22;;;18.14;98.30
6853;BME280;3465;42.144;24.722;2023-03-23T07:23:14;147799.31;;;19.51;88.12
6853;BME280;3465;42.144;24.722;2023-03-23T07:25:39;148197.09;;;21.09;80.89
6853;BME280;3465;42.144;24.722;2023-03-23T07:28:05;148456.22;;;22.12;69.34
6853;BME280;3465;42.144;24.722;2023-03-23T07:30:31;148675.06;;;22.99;65.83
6853;BME280;3465;42.144;24.722;2023-03-23T07:32:57;148752.31;;;23.29;63.42
6853;BME280;3465;42.144;24.722;2023-03-23T07:35:24;148791.50;;;23.45;60.29
6853;BME280;3465;42.144;24.722;2023-03-23T07:37:50;148834.56;;;23.62;60.45
6853;BME280;3465;42.144;24.722;2023-03-23T07:40:17;148949.81;;;24.08;58.19
6853;BME280;3465;42.144;24.722;2023-03-23T07:42:45;148596.63;;;22.67;60.03
6853;BME280;3465;42.144;24.722;2023-03-23T07:45:12;148824.44;;;23.58;58.92
6853;BME280;3465;42.144;24.722;2023-03-23T07:47:39;149082.75;;;24.60;56.17
6853;BME280;3465;42.144;24.722;2023-03-23T07:50:06;149328.72;;;25.58;50.20
6853;BME280;3465;42.144;24.722;2023-03-23T07:52:32;149507.53;;;26.28;47.16
6853;BME280;3465;42.144;24.722;2023-03-23T07:54:58;149691.50;;;27.01;45.07
6853;BME280;3465;42.144;24.722;2023-03-23T07:57:23;149817.19;;;27.51;43.74
6853;BME280;3465;42.144;24.722;2023-03-23T07:59:49;149920.09;;;27.91;42.48
6853;BME280;3465;42.144;24.722;2023-03-23T08:02:14;149824.84;;;27.54;42.10
6853;BME280;3465;42.144;24.722;2023-03-23T08:04:40;149718.19;;;27.12;41.89
6853;BME280;3465;42.144;24.722;2023-03-23T08:07:05;149800.69;;;27.44;41.73
6853;BME280;3465;42.144;24.722;2023-03-23T08:09:31;149911.13;;;27.88;39.91
6853;BME280;3465;42.144;24.722;2023-03-23T08:11:57;149984.84;;;28.17;38.75
6853;BME280;3465;42.144;24.722;2023-03-23T08:14:23;149925.19;;;27.93;37.48
6853;BME280;3465;42.144;24.722;2023-03-23T08:16:52;149927.69;;;27.94;37.46
6853;BME280;3465;42.144;24.722;2023-03-23T08:19:20;149955.63;;;28.05;37.26
6853;BME280;3465;42.144;24.722;2023-03-23T08:21:46;150137.34;;;28.77;37.10
6853;BME280;3465;42.144;24.722;2023-03-23T08:24:11;150219.94;;;29.10;36.00
6853;BME280;3465;42.144;24.722;2023-03-23T08:26:38;150209.75;;;29.06;36.21
6853;BME280;3465;42.144;24.722;2023-03-23T08:29:03;150199.56;;;29.02;34.64
6853;BME280;3465;42.144;24.722;2023-03-23T08:31:29;150169.09;;;28.90;34.67
6853;BME280;3465;42.144;24.722;2023-03-23T08:33:54;150167.81;;;28.89;35.60
6853;BME280;3465;42.144;24.722;2023-03-23T08:36:22;150209.75;;;29.06;33.84
6853;BME280;3465;42.144;24.722;2023-03-23T08:38:48;150312.75;;;29.47;34.29
6853;BME280;3465;42.144;24.722;2023-03-23T08:41:16;150445.00;;;29.99;33.26
6853;BME280;3465;42.144;24.722;2023-03-23T08:43:42;150570.97;;;30.48;33.27
6853;BME280;3465;42.144;24.722;2023-03-23T08:46:09;150658.81;;;30.83;32.17
6853;BME280;3465;42.144;24.722;2023-03-23T08:48:36;150464.06;;;30.06;32.74
6853;BME280;3465;42.144;24.722;2023-03-23T08:51:04;150427.19;;;29.92;33.86
6853;BME280;3465;42.144;24.722;2023-03-23T08:53:30;150587.50;;;30.55;32.65
6853;BME280;3465;42.144;24.722;2023-03-23T08:55:56;150343.25;;;29.59;32.88
6853;BME280;3465;42.144;24.722;2023-03-23T08:58:27;150414.53;;;29.87;33.14
6853;BME280;3465;42.144;24.722;2023-03-23T09:00:53;150406.84;;;29.84;33.03
6853;BME280;3465;42.144;24.722;2023-03-23T09:03:19;150537.88;;;30.35;33.06
6853;BME280;3465;42.144;24.722;2023-03-23T09:05:44;150364.94;;;29.67;31.93
6853;BME280;3465;42.144;24.722;2023-03-23T09:08:12;150062.31;;;28.48;34.16
6853;BME280;3465;42.144;24.722;2023-03-23T09:10:38;149597.56;;;26.64;36.59
6853;BME280;3465;42.144;24.722;2023-03-23T09:13:04;149213.31;;;25.12;39.90
6853;BME280;3465;42.144;24.722;2023-03-23T09:15:29;149067.56;;;24.54;42.49
6853;BME280;3465;42.144;24.722;2023-03-23T09:17:55;149010.59;;;24.32;43.70
6853;BME280;3465;42.144;24.722;2023-03-23T09:20:24;149260.22;;;25.30;42.34
6853;BME280;3465;42.144;24.722;2023-03-23T09:22:52;149540.53;;;26.41;38.75
6853;BME280;3465;42.144;24.722;2023-03-23T09:25:21;149576.03;;;26.55;37.90
6853;BME280;3465;42.144;24.722;2023-03-23T09:27:53;149706.75;;;27.07;37.70
6853;BME280;3465;42.144;24.722;2023-03-23T09:30:25;149720.69;;;27.13;35.79
6853;BME280;3465;42.144;24.722;2023-03-23T09:32:52;149682.66;;;26.98;36.42
6853;BME280;3465;42.144;24.722;2023-03-23T09:35:18;149492.28;;;26.22;36.92
6853;BME280;3465;42.144;24.722;2023-03-23T09:37:46;149078.97;;;24.59;38.08
6853;BME280;3465;42.144;24.722;2023-03-23T09:40:16;148701.59;;;23.09;40.38
6853;BME280;3465;42.144;24.722;2023-03-23T09:43:25;148572.59;;;22.58;41.67
6853;BME280;3465;42.144;24.722;2023-03-23T09:46:59;148284.28;;;21.44;43.48
6853;BME280;3465;42.144;24.722;2023-03-23T09:49:08;148211.00;;;21.14;46.47
6853;BME280;3465;42.144;24.722;2023-03-23T09:54:40;148245.09;;;21.28;47.67
6853;BME280;3465;42.144;24.722;2023-03-23T09:59:52;148934.63;;;24.02;43.94
6853;BME280;3465;42.144;24.722;2023-03-23T10:03:17;149399.69;;;25.86;38.75
6853;BME280;3465;42.144;24.722;2023-03-23T10:05:34;149728.31;;;27.16;37.17
6853;BME280;3465;42.144;24.722;2023-03-23T10:08:02;149682.66;;;26.98;36.32
6853;BME280;3465;42.144;24.722;2023-03-23T10:16:06;149642.06;;;26.82;35.50
6853;BME280;3465;42.144;24.722;2023-03-23T10:21:48;149217.13;;;25.13;35.89
6853;BME280;3465;42.144;24.722;2023-03-23T10:24:20;149214.59;;;25.12;36.36
6853;BME280;3465;42.144;24.722;2023-03-23T10:27:12;149426.34;;;25.96;37.59
6853;BME280;3465;42.144;24.722;2023-03-23T10:30:43;149680.09;;;26.97;34.43
6853;BME280;3465;42.144;24.722;2023-03-23T10:38:26;149810.88;;;27.48;32.97
6853;BME280;3465;42.144;24.722;2023-03-23T10:40:57;150019.16;;;28.31;30.89
6853;BME280;3465;42.144;24.722;2023-03-23T10:43:24;150142.38;;;28.79;30.81
6853;BME280;3465;42.144;24.722;2023-03-23T10:45:56;150211.03;;;29.06;30.78
6853;BME280;3465;42.144;24.722;2023-03-23T10:48:29;150371.25;;;29.70;30.35
6853;BME280;3465;42.144;24.722;2023-03-23T10:51:00;150211.03;;;29.06;29.95
6853;BME280;3465;42.144;24.722;2023-03-23T10:53:36;150462.84;;;30.06;28.78
6853;BME280;3465;42.144;24.722;2023-03-23T10:56:03;150712.22;;;31.04;27.86
6853;BME280;3465;42.144;24.722;2023-03-23T10:58:33;150515.00;;;30.26;27.65
6853;BME280;3465;42.144;24.722;2023-03-23T11:01:01;150019.16;;;28.31;30.02
6853;BME280;3465;42.144;24.722;2023-03-23T11:03:42;150141.16;;;28.79;30.03
6853;BME280;3465;42.144;24.722;2023-03-23T11:06:53;150186.84;;;28.97;29.06
6853;BME280;3465;42.144;24.722;2023-03-23T11:09:10;150076.38;;;28.53;30.78
6853;BME280;3465;42.144;24.722;2023-03-23T11:11:39;149662.34;;;26.90;32.68
6853;BME280;3465;42.144;24.722;2023-03-23T11:16:55;149270.41;;;25.34;35.47
6853;BME280;3465;42.144;24.722;2023-03-23T11:19:27;149213.31;;;25.12;34.96
6853;BME280;3465;42.144;24.722;2023-03-23T11:22:04;149077.75;;;24.58;35.98
6853;BME280;3465;42.144;24.722;2023-03-23T11:24:41;148873.81;;;23.77;38.38
6853;BME280;3465;42.144;24.722;2023-03-23T11:27:08;148629.50;;;22.81;40.72
6853;BME280;3465;42.144;24.722;2023-03-23T11:29:36;148535.88;;;22.43;41.74
6853;BME280;3465;42.144;24.722;2023-03-23T11:32:06;148396.81;;;21.88;42.77
6853;BME280;3465;42.144;24.722;2023-03-23T11:34:40;148183.22;;;21.03;44.52
6853;BME280;3465;42.144;24.722;2023-03-23T11:37:40;148190.78;;;21.06;45.75
6853;BME280;3465;42.144;24.722;2023-03-23T11:42:44;148030.31;;;20.43;46.07
6853;BME280;3465;42.144;24.722;2023-03-23T11:50:44;147914.13;;;19.97;48.86
6853;BME280;3465;42.144;24.722;2023-03-23T11:58:32;148061.94;;;20.55;46.55
6853;BME280;3465;42.144;24.722;2023-03-23T12:09:25;148170.59;;;20.98;52.59
6853;BME280;3465;42.144;24.722;2023-03-23T12:17:35;147909.06;;;19.94;53.98
6853;BME280;3465;42.144;24.722;2023-03-23T12:28:38;147699.59;;;19.11;60.01
6853;BME280;3465;42.144;24.722;2023-03-23T12:31:15;147634.00;;;18.85;60.69
6853;BME280;3465;42.144;24.722;2023-03-23T12:42:12;147887.66;;;19.86;56.75
6853;BME280;3465;42.144;24.722;2023-03-23T12:44:53;147941.91;;;20.08;56.25
6853;BME280;3465;42.144;24.722;2023-03-23T12:47:39;148130.13;;;20.82;54.07
6853;BME280;3465;42.144;24.722;2023-03-23T12:50:16;148212.25;;;21.15;52.64
6853;BME280;3465;42.144;24.722;2023-03-23T12:53:03;148307.03;;;21.53;51.96
6853;BME280;3465;42.144;24.722;2023-03-23T12:55:38;148342.41;;;21.67;50.73
6853;BME280;3465;42.144;24.722;2023-03-23T12:58:15;148362.63;;;21.75;49.92
6853;BME280;3465;42.144;24.722;2023-03-23T13:00:55;148198.38;;;21.09;51.53
6853;BME280;3465;42.144;24.722;2023-03-23T13:03:24;148202.16;;;21.11;51.61
6853;BME280;3465;42.144;24.722;2023-03-23T13:05:59;148112.41;;;20.75;52.47
6853;BME280;3465;42.144;24.722;2023-03-23T13:08:30;148149.03;;;20.90;52.30
6853;BME280;3465;42.144;24.722;2023-03-23T13:11:01;148106.13;;;20.73;52.14
6853;BME280;3465;42.144;24.722;2023-03-23T13:13:43;147979.84;;;20.23;53.20
6853;BME280;3465;42.144;24.722;2023-03-23T13:16:33;147911.63;;;19.96;54.13
6853;BME280;3465;42.144;24.722;2023-03-23T13:19:01;148102.34;;;20.71;53.42
6853;BME280;3465;42.144;24.722;2023-03-23T13:21:31;148085.91;;;20.65;51.58
6853;BME280;3465;42.144;24.722;2023-03-23T13:24:02;147965.94;;;20.17;53.54
6853;BME280;3465;42.144;24.722;2023-03-23T13:26:29;147912.88;;;19.96;54.10
6853;BME280;3465;42.144;24.722;2023-03-23T13:33:53;148140.19;;;20.86;52.94
6853;BME280;3465;42.144;24.722;2023-03-23T13:36:43;148039.16;;;20.46;51.73
6853;BME280;3465;42.144;24.722;2023-03-23T13:40:11;147957.03;;;20.14;52.70
6853;BME280;3465;42.144;24.722;2023-03-23T13:42:28;147852.28;;;19.72;54.22
6853;BME280;3465;42.144;24.722;2023-03-23T13:48:17;147811.91;;;19.56;55.11
6853;BME280;3465;42.144;24.722;2023-03-23T13:53:45;147728.63;;;19.23;56.33
6853;BME280;3465;42.144;24.722;2023-03-23T13:58:51;147714.72;;;19.17;56.60
6853;BME280;3465;42.144;24.722;2023-03-23T14:01:36;147594.91;;;18.70;57.71
6853;BME280;3465;42.144;24.722;2023-03-23T14:04:14;147497.78;;;18.31;59.03
6853;BME280;3465;42.144;24.722;2023-03-23T14:06:40;147485.19;;;18.26;60.21
6853;BME280;3465;42.144;24.722;2023-03-23T14:12:16;147366.75;;;17.79;61.70
6853;BME280;3465;42.144;24.722;2023-03-23T14:14:49;147376.81;;;17.83;61.54
6853;BME280;3465;42.144;24.722;2023-03-23T14:17:24;147547.00;;;18.50;60.40
6853;BME280;3465;42.144;24.722;2023-03-23T14:19:53;147548.28;;;18.51;59.78
6853;BME280;3465;42.144;24.722;2023-03-23T14:22:40;147446.13;;;18.10;60.06
6853;BME280;3465;42.144;24.722;2023-03-23T14:25:17;147448.63;;;18.11;61.20
6853;BME280;3465;42.144;24.722;2023-03-23T14:27:51;147375.59;;;17.82;61.24
6853;BME280;3465;42.144;24.722;2023-03-23T14:30:25;147389.41;;;17.88;61.56
6853;BME280;3465;42.144;24.722;2023-03-23T14:32:52;147418.41;;;17.99;61.07
6853;BME280;3465;42.144;24.722;2023-03-23T14:35:30;147460.00;;;18.16;60.40
6853;BME280;3465;42.144;24.722;2023-03-23T14:37:56;147476.41;;;18.22;59.71
6853;BME280;3465;42.144;24.722;2023-03-23T14:40:26;147375.59;;;17.82;60.25
6853;BME280;3465;42.144;24.722;2023-03-23T14:42:52;147259.59;;;17.36;62.20
6853;BME280;3465;42.144;24.722;2023-03-23T14:45:20;147242.00;;;17.29;63.11
6853;BME280;3465;42.144;24.722;2023-03-23T14:47:52;147211.75;;;17.17;62.90
6853;BME280;3465;42.144;24.722;2023-03-23T14:50:24;147221.84;;;17.21;62.72
6853;BME280;3465;42.144;24.722;2023-03-23T14:52:50;147248.28;;;17.32;62.98
6853;BME280;3465;42.144;24.722;2023-03-23T14:55:21;147264.66;;;17.38;62.55
6853;BME280;3465;42.144;24.722;2023-03-23T14:57:48;147293.69;;;17.50;62.45
6853;BME280;3465;42.144;24.722;2023-03-23T15:00:22;147328.94;;;17.64;61.87